Latest Coastal Weather Observations for St Helens

IDT60701

Issued at 11:11 pm EST Friday 5 June 2020 (issued every 10 minutes, with the page automatically refreshed every 10 minutes)

About coastal observations | Map of coastal stations | Coastal observations for TAS | Marine services | Other Formats
Station Details ID: 092120 Name: ST HELENS AERODROME Lat: -41.34 Lon: 148.28 Height: 48.0 m
Data from the previous 72 hours. | See also: Recent months at St Helens
Date/Time
EST
Wind Sea
Height
m
Swell Vis
km
Cloud Weather Temp
°C
Press
hPa
Rain since
9am
mm
Dir  Spd
kts
Gust
kts
Height
m
Period
s
Dir
05/11:00pm S 6 8 - - - - 10 Clear - 7.1 1026.7 0.4
05/10:30pm S 7 11 - - - - 10 - - 7.7 1026.6 0.4
05/10:00pm SSE 10 16 - - - - 10 Partly cloudy - 8.4 1026.5 0.4
05/09:30pm S 10 16 - - - - 10 Partly cloudy - 8.9 1026.4 0.4
05/09:00pm S 10 17 - - - - 10 Cloudy - 9.2 1026.3 0.4
05/08:30pm S 10 18 - - - - 10 Cloudy - 9.4 1026.0 0.4
05/08:00pm S 9 14 - - - - 10 Partly cloudy - 9.4 1026.0 0.4
05/07:30pm S 9 16 - - - - 10 Cloudy - 9.4 1025.6 0.4
05/07:00pm S 11 17 - - - - 10 Partly cloudy - 9.6 1025.2 0.2
05/06:30pm S 13 22 - - - - 10 Partly cloudy - 10.0 1024.9 0.0
05/06:00pm S 13 23 - - - - 10 Cloudy - 11.0 1024.3 0.0
05/05:30pm S 10 18 - - - - 10 Partly cloudy - 11.5 1023.7 0.0
05/05:00pm S 4 8 - - - - 10 Partly cloudy - 11.1 1023.2 0.0
05/04:30pm SW 3 4 - - - - 10 Partly cloudy - 11.8 1022.6 0.0
05/04:00pm WSW 3 5 - - - - 10 Partly cloudy - 12.2 1022.1 0.0
05/03:30pm S 2 6 - - - - 10 Partly cloudy - 12.5 1021.7 0.0
05/03:00pm WNW 6 10 - - - - 10 Partly cloudy - 12.7 1021.3 0.0
05/02:30pm WSW 5 11 - - - - 10 - - 12.6 1020.9 0.0
05/02:00pm WNW 5 8 - - - - 10 - - 12.8 1021.2 0.0
05/01:30pm WNW 3 5 - - - - 10 - - 12.3 1021.4 0.0
05/01:00pm W 1 4 - - - - 10 - - 11.5 1021.6 0.0
05/12:30pm NNW 3 5 - - - - 10 - - 11.3 1022.2 0.0
05/12:00pm WNW 2 4 - - - - 10 - - 10.5 1022.9 0.0
05/11:30am NW 3 4 - - - - 10 - - 9.4 1023.2 0.0
05/11:00am W 2 4 - - - - 10 - - 8.8 1023.8 0.0
05/10:30am WNW 1 4 - - - - 10 - - 8.1 1024.1 0.0
05/10:00am NNW 4 5 - - - - 10 - - 7.7 1024.3 0.0
05/09:30am NNW 4 5 - - - - 10 - - 7.3 1024.1 0.0
05/09:00am NW 5 6 - - - - 25 Mostly cloudy Fine 7.4 1024.1 0.0
05/08:30am WNW 5 8 - - - - 10 - - 8.6 1024.2 0.0
05/08:00am WSW 4 6 - - - - 10 - - 7.9 1023.9 0.0
05/07:30am W 5 10 - - - - 10 - - 7.7 1023.9 0.0
05/07:00am W 5 8 - - - - 10 - - 7.2 1023.6 0.0
05/06:30am NNW 4 6 - - - - 10 - - 4.9 1023.5 0.0
05/06:00am WNW 4 5 - - - - 10 - - 5.1 1023.5 0.0
05/05:30am CALM 0 0 - - - - 10 - - 5.2 1023.5 0.0
05/05:00am W 1 4 - - - - 10 - - 4.7 1023.5 0.0
05/04:30am CALM 0 0 - - - - 10 - - 6.6 1023.5 0.0
05/04:00am W 4 7 - - - - 10 - - 6.2 1023.4 0.0
05/03:30am WNW 4 6 - - - - 10 - - 3.4 1023.5 0.0
05/03:00am NNW 6 8 - - - - 10 - - 3.3 1023.9 0.0
05/02:30am NNW 8 9 - - - - 10 - - 3.0 1024.1 0.0
05/02:00am NNW 6 9 - - - - 10 - - 4.0 1024.5 0.0
05/01:30am N 5 7 - - - - 10 - - 3.4 1024.4 0.0
05/01:00am NNW 6 7 - - - - 10 - - 4.0 1024.5 0.0
05/12:30am NW 6 8 - - - - 10 - - 4.8 1024.8 0.0
05/12:00am WNW 6 8 - - - - 10 - - 5.6 1025.4 0.0
 
Date/Time
EST
Wind Sea
Height
m
Swell Vis
km
Cloud Weather Temp
°C
Press
hPa
Rain since
9am
mm
Dir  Spd
kts
Gust
kts
Height
m
Period
s
Dir
04/11:30pm NNW 5 7 - - - - 10 - - 4.6 1025.8 0.0
04/11:00pm NNW 6 8 - - - - 10 - - 4.5 1026.3 0.0
04/10:30pm NNW 5 7 - - - - 10 - - 4.9 1026.7 0.0
04/10:00pm NNW 5 7 - - - - 10 - - 4.4 1027.0 0.0
04/09:30pm NW 7 9 - - - - 10 - - 4.4 1027.2 0.0
04/09:00pm NNW 6 8 - - - - 10 - - 5.5 1027.3 0.0
04/08:30pm NW 5 7 - - - - 10 - - 5.6 1027.5 0.0
04/08:00pm NNW 5 7 - - - - 10 - - 5.5 1027.6 0.0
04/07:30pm NW 5 6 - - - - 10 - - 7.1 1027.6 0.0
04/07:00pm WNW 4 5 - - - - 10 - - 6.8 1027.5 0.0
04/06:30pm NNW 5 6 - - - - 10 - - 7.0 1027.4 0.0
04/06:00pm NW 5 7 - - - - 10 - - 8.7 1027.3 0.0
04/05:30pm NW 5 6 - - - - 10 - - 9.1 1027.2 0.0
04/05:00pm NNW 1 4 - - - - 10 - - 10.3 1027.3 0.0
04/04:30pm CALM 0 0 - - - - 10 - - 11.6 1027.4 0.0
04/04:00pm CALM 0 0 - - - - 10 - - 13.7 1027.6 0.0
04/03:30pm NNW 1 3 - - - - 10 - - 13.9 1027.8 0.0
04/03:00pm N 4 5 - - - - 10 - - 13.6 1028.1 0.0
04/02:30pm N 4 6 - - - - 10 - - 13.6 1028.4 0.0
04/02:00pm N 4 6 - - - - 10 - - 13.2 1028.8 0.0
04/01:30pm NNW 3 5 - - - - 10 - - 13.4 1029.2 0.0
04/01:00pm NNW 4 5 - - - - 10 - - 12.5 1029.5 0.0
04/12:30pm NW 5 7 - - - - 10 - - 12.0 1030.0 0.0
04/12:00pm NNW 5 6 - - - - 10 - - 11.4 1030.6 0.0
04/11:30am NW 5 6 - - - - 10 - - 10.8 1031.1 0.0
04/11:00am NW 6 7 - - - - 10 - - 9.2 1031.6 0.0
04/10:30am NW 6 7 - - - - 10 - - 7.9 1032.0 0.0
04/10:00am NW 6 8 - - - - 10 - - 6.3 1032.2 0.0
04/09:30am NW 7 8 - - - - 10 - - 4.8 1032.2 0.0
04/09:00am NW 7 9 - - - - 25 Partly cloudy Fine 3.4 1032.3 0.2
04/08:30am NW 9 11 - - - - 10 - - 2.5 1032.3 0.2
04/08:00am NW 8 10 - - - - 10 - - 1.8 1032.3 0.2
04/07:30am NW 9 11 - - - - 10 - - 1.7 1032.0 0.2
04/07:00am NW 6 8 - - - - 10 - - 2.0 1032.0 0.2
04/06:30am NW 7 11 - - - - 10 - - 2.8 1031.9 0.2
04/06:00am NW 7 9 - - - - 10 - - 2.2 1031.9 0.0
04/05:30am NW 8 11 - - - - 10 - - 2.8 1031.7 0.0
04/05:00am NW 7 8 - - - - 10 - - 2.0 1031.6 0.0
04/04:30am NW 7 9 - - - - 10 - - 2.2 1031.6 0.0
04/04:00am NW 5 7 - - - - 10 - - 2.4 1031.6 0.0
04/03:30am NW 5 7 - - - - 10 - - 1.9 1031.7 0.0
04/03:00am WNW 4 6 - - - - 10 - - 2.2 1031.8 0.0
04/02:30am NW 6 8 - - - - 10 - - 2.6 1031.7 0.0
04/02:00am NNW 4 5 - - - - 10 - - 2.8 1031.8 0.0
04/01:30am WNW 3 5 - - - - 10 - - 3.0 1031.7 0.0
04/01:00am WNW 3 5 - - - - 10 - - 4.3 1031.9 0.0
04/12:30am S 4 7 - - - - 10 - - 5.8 1032.0 0.0
04/12:00am NNW 5 6 - - - - 10 - - 3.6 1032.1 0.0
 
Date/Time
EST
Wind Sea
Height
m
Swell Vis
km
Cloud Weather Temp
°C
Press
hPa
Rain since
9am
mm
Dir  Spd
kts
Gust
kts
Height
m
Period
s
Dir
03/11:30pm NW 7 8 - - - - 10 - - 3.3 1032.1 0.0
03/11:00pm NW 5 7 - - - - 10 - - 3.4 1031.9 0.0
03/10:30pm NW 5 7 - - - - 10 - - 3.2 1031.8 0.0
03/10:00pm NW 7 8 - - - - 10 - - 4.3 1031.7 0.0
03/09:30pm NNW 7 8 - - - - 10 - - 4.4 1031.5 0.0
03/09:00pm NW 7 9 - - - - 10 - - 4.5 1031.2 0.0
03/08:30pm NNW 7 9 - - - - 10 - - 4.7 1031.2 0.0
03/08:00pm NNW 4 5 - - - - 10 - - 4.8 1031.0 0.0
03/07:30pm NNW 6 8 - - - - 10 - - 5.3 1030.5 0.0
03/07:00pm N 2 4 - - - - 10 - - 5.2 1030.2 0.0
03/06:30pm W 4 7 - - - - 10 - - 6.7 1029.9 0.0
03/06:00pm SSW 3 4 - - - - 10 Mostly clear - 8.0 1029.5 0.0
03/05:30pm S 1 4 - - - - 10 - - 7.0 1029.2 0.0
03/05:00pm SW 5 7 - - - - 10 - - 7.7 1028.7 0.0
03/04:30pm SSW 4 6 - - - - 10 - - 9.5 1028.4 0.0
03/04:00pm SSW 5 12 - - - - 10 Partly cloudy - 10.6 1028.1 0.0
03/03:30pm SSW 7 12 - - - - 10 Cloudy - 11.8 1027.7 0.0
03/03:00pm SSW 3 5 - - - - 10 Partly cloudy - 12.0 1027.3 0.0
03/02:30pm SW 3 8 - - - - 10 Partly cloudy - 11.2 1026.9 0.0
03/02:00pm SW 4 9 - - - - 10 Partly cloudy - 10.7 1026.7 0.0
03/01:30pm SSW 6 13 - - - - 10 Partly cloudy - 10.7 1026.4 0.0
03/01:00pm SSW 7 12 - - - - 10 Partly cloudy - 12.2 1026.3 0.0
03/12:30pm SW 6 11 - - - - 10 Cloudy - 12.3 1026.0 0.0
03/12:00pm SSW 6 11 - - - - 10 Mostly cloudy - 11.7 1025.9 0.0
03/11:30am SW 6 14 - - - - 10 Partly cloudy - 11.7 1025.8 0.0
03/11:00am SW 7 12 - - - - 10 Cloudy - 11.5 1025.9 0.0
03/10:30am SW 7 13 - - - - 10 Cloudy - 10.4 1025.7 0.0
03/10:00am SSW 4 7 - - - - 10 Cloudy - 10.4 1025.0 0.0
03/09:30am S 4 9 - - - - 10 Partly cloudy - 10.5 1024.3 0.0
03/09:00am SSE 1 5 - - - - 25 Mostly clear Fine 9.9 1023.5 0.0
03/08:30am SSW 3 6 - - - - 10 - - 9.3 1022.7 0.0
03/08:00am SSE 3 9 - - - - 10 - - 9.1 1022.0 0.0
03/07:30am SSW 7 16 - - - - 10 - - 8.9 1021.0 0.0
03/07:00am SSW 8 17 - - - - 10 - - 8.7 1020.3 0.0
03/06:30am SSW 8 20 - - - - 10 - - 9.1 1019.6 0.0
03/06:00am SSW 5 13 - - - - 10 - - 9.1 1019.1 0.0
03/05:30am N 2 5 - - - - 10 Partly cloudy - 8.6 1018.6 0.0
03/05:00am WNW 3 5 - - - - 10 Partly cloudy - 9.1 1017.9 0.0
03/04:30am N 1 4 - - - - 10 Cloudy - 9.3 1017.0 0.0
03/04:00am SSW 3 7 - - - - 10 Partly cloudy - 9.8 1016.2 0.0
03/03:30am SSW 3 7 - - - - 10 Partly cloudy - 9.7 1015.7 0.0
03/03:00am SSW 6 15 - - - - 10 - - 8.9 1014.9 0.0
03/02:30am SSW 3 8 - - - - 10 - - 9.6 1014.4 0.0
03/02:00am SSW 8 15 - - - - 10 Partly cloudy - 9.6 1013.8 0.0
03/01:30am SSW 5 8 - - - - 10 Partly cloudy - 8.3 1013.0 0.0
03/01:00am SSW 5 11 - - - - 10 Partly cloudy - 9.7 1012.5 0.0
03/12:30am S 7 11 - - - - 10 - - 10.3 1012.0 0.0
03/12:00am SSW 10 17 - - - - 10 - - 10.7 1011.3 0.0
 
Date/Time
EST
Wind Sea
Height
m
Swell Vis
km
Cloud Weather Temp
°C
Press
hPa
Rain since
9am
mm
Dir  Spd
kts
Gust
kts
Height
m
Period
s
Dir
02/11:30pm SSW 16 31 - - - - 10 - - 11.1 1010.4 0.0
02/11:22pm SSW 15 31 - - - - 10 - - 11.2 1010.2 0.0

Other formats

Comma delimited format used in spreadsheet applications
http://www.bom.gov.au/fwo/IDT60701/IDT60701.95981.axf

JavaScript Object Notation format (JSON) in row-major order
http://www.bom.gov.au/fwo/IDT60701/IDT60701.95981.json

Data quality

Most of these data are generated automatically and are frequently updated. Quality checks on data are not normally performed. It is possible for incorrect values to appear. Refer to information at About Latest Weather Observations and please check the disclaimer before using these data.